Latest Weather Observations for Mount Buller

IDV60801

Issued at 3:35 pm EST Thursday 24 April 2014 (issued every 30 minutes, with the page automatically refreshed every 10 minutes)

About weather observations | Map of weather stations | Latest weather observations for VIC | Other Formats
Station Details ID: 083024 Name: MOUNT BULLER Lat: -37.15 Lon: 146.44 Height: 1707.0 m
Data from the previous 72 hours. | See also: Recent months at Mount Buller
Date/Time
EST
Temp
°C
App
Temp
°C
Dew
Point
Rel
Hum
%
Delta-T
°C
Wind Press
QNH
hPa
Press
MSL
hPa
Rain
since 9 am
mm
Dir
 
Spd
km/h
Gust
km/h
Spd
kts
Gust
kts
24/03:30pm 2.1 -2.6 0.8 91 0.6 WSW 15 22 8 12 - - 1.6
24/03:00pm 3.0 -3.6 1.8 92 0.5 WSW 26 35 14 19 - - 1.6
24/02:30pm 3.5 -1.6 3.2 98 0.1 SW 19 26 10 14 - - 1.6
24/02:00pm 3.0 -1.4 2.9 99 0.0 SW 15 26 8 14 - - 1.6
24/01:30pm 3.1 -3.3 3.1 100 0.0 W 26 39 14 21 - - 1.6
24/01:00pm 3.3 -2.7 3.3 100 0.0 W 24 37 13 20 - - 1.6
24/12:31pm 3.1 -3.7 3.0 99 0.0 W 28 46 15 25 - - 1.6
24/12:30pm 3.1 -4.1 3.0 99 0.0 W 30 46 16 25 - - 1.6
24/12:25pm 3.1 -3.7 3.0 99 0.0 W 28 46 15 25 - - 1.6
24/12:00pm 3.0 -3.1 2.9 99 0.0 W 24 35 13 19 - - 1.6
24/11:30am 3.0 -4.2 2.9 99 0.0 W 30 41 16 22 - - 1.4
24/11:14am 3.1 -3.7 3.0 99 0.0 W 28 48 15 26 - - 1.4
24/11:00am 3.3 -2.7 3.2 99 0.0 W 24 43 13 23 - - 1.4
24/10:43am 3.5 -3.2 3.4 99 0.0 W 28 46 15 25 - - 1.4
24/10:30am 3.2 -3.2 3.1 99 0.0 WNW 26 37 14 20 - - 1.4
24/10:17am 3.0 -3.8 2.9 99 0.0 WNW 28 54 15 29 - - 1.0
24/10:00am 2.4 -3.4 2.1 98 0.1 WNW 22 41 12 22 - - 0.0
24/09:30am 2.0 -4.4 0.8 92 0.5 NW 24 41 13 22 - - 0.0
24/09:00am 2.1 -2.4 0.0 86 0.9 NW 13 37 7 20 - - 0.0
24/08:30am 2.1 -2.4 -0.2 85 0.9 NNW 13 26 7 14 - - 0.0
24/08:00am 2.0 -5.0 -0.2 85 0.9 NNW 26 50 14 27 - - 0.0
24/07:30am 2.0 -2.5 -0.2 85 0.9 NNW 13 35 7 19 - - 0.0
24/07:00am 1.9 -2.7 -0.7 83 1.1 NNW 13 32 7 17 - - 0.0
24/06:30am 2.1 -4.5 -0.6 82 1.1 NW 24 44 13 24 - - 0.0
24/06:00am 1.6 -2.6 -0.6 85 0.9 NW 11 24 6 13 - - 0.0
24/05:30am 1.0 -4.4 -1.2 85 0.9 NNW 17 35 9 19 - - 0.0
24/05:00am 1.2 -5.1 -0.9 86 0.8 NW 22 39 12 21 - - 0.0
24/04:36am 1.3 -6.2 -1.1 84 1.0 NW 28 46 15 25 - - 0.0
24/04:30am 1.3 -5.8 -0.9 85 0.9 NW 26 41 14 22 - - 0.0
24/04:24am 1.4 -6.0 -1.0 84 1.0 NW 28 46 15 25 - - 0.0
24/04:00am 1.6 -6.2 -0.5 86 0.9 NW 30 44 16 24 - - 0.0
24/03:46am 1.6 -6.2 -0.6 85 0.9 NW 30 48 16 26 - - 0.0
24/03:30am 1.6 -5.5 -1.0 83 1.0 NW 26 44 14 24 - - 0.0
24/03:00am 1.6 -4.6 -0.2 88 0.7 NNW 22 37 12 20 - - 0.0
24/02:30am 1.9 -5.7 0.6 91 0.5 NNW 30 44 16 24 - - 0.0
24/02:00am 2.1 -5.0 1.5 96 0.3 NNW 28 39 15 21 - - 0.0
24/01:30am 2.2 -5.2 1.8 97 0.2 NNW 30 37 16 20 - - 0.0
24/01:00am 2.4 -5.4 1.8 96 0.3 NNW 32 39 17 21 - - 0.0
24/12:30am 2.6 -5.2 1.6 93 0.4 NNW 32 39 17 21 - - 0.0
24/12:00am 2.8 -5.1 -1.4 74 1.7 NNW 30 37 16 20 - - 0.0
 
Date/Time
EST
Temp
°C
App
Temp
°C
Dew
Point
Rel
Hum
%
Delta-T
°C
Wind Press
QNH
hPa
Press
MSL
hPa
Rain
since 9 am
mm
Dir
 
Spd
km/h
Gust
km/h
Spd
kts
Gust
kts
23/11:30pm 2.4 -4.4 -1.7 74 1.6 NNW 24 32 13 17 - - 0.0
23/11:00pm 2.3 -4.5 -1.7 75 1.6 NNW 24 33 13 18 - - 0.0
23/10:30pm 2.4 -3.7 0.5 87 0.8 NNW 22 32 12 17 - - 0.0
23/10:00pm 2.5 -3.6 0.7 88 0.8 N 22 30 12 16 - - 0.0
23/09:30pm 3.1 -2.4 1.9 92 0.5 N 20 30 11 16 - - 0.0
23/09:00pm 3.4 -2.2 3.3 99 0.0 N 22 30 12 16 - - 0.0
23/08:30pm 4.1 -1.4 4.0 99 0.0 N 22 30 12 16 - - 0.0
23/08:00pm 3.9 -1.3 3.6 98 0.1 N 20 26 11 14 - - 0.0
23/07:30pm 3.5 -1.8 2.8 95 0.3 N 20 26 11 14 - - 0.0
23/07:00pm 3.5 -1.7 2.6 94 0.4 NNW 19 24 10 13 - - 0.0
23/06:30pm 3.7 -1.5 3.6 99 0.0 N 20 24 11 13 - - 0.0
23/06:00pm 4.4 -0.5 4.1 98 0.1 N 19 26 10 14 - - 0.0
23/05:30pm 4.7 0.2 4.3 97 0.2 N 17 20 9 11 - - 0.0
23/05:00pm 5.0 -0.4 4.3 95 0.3 N 22 30 12 16 - - 0.0
23/04:30pm 5.5 0.6 4.9 96 0.3 NNW 20 32 11 17 - - 0.0
23/04:00pm 5.9 1.0 5.3 96 0.3 N 20 32 11 17 - - 0.0
23/03:30pm 6.3 2.0 5.4 94 0.4 NNW 17 32 9 17 - - 0.0
23/03:00pm 6.6 0.8 4.4 86 1.1 N 24 35 13 19 - - 0.0
23/02:30pm 6.9 -0.5 4.2 83 1.3 N 32 46 17 25 - - 0.0
23/02:00pm 7.1 0.9 6.0 93 0.5 NNW 28 46 15 25 - - 0.0
23/01:51pm 6.7 -0.5 5.0 89 0.8 N 32 50 17 27 - - 0.0
23/01:30pm 7.2 0.9 5.8 91 0.7 N 28 39 15 21 - - 0.0
23/01:00pm 6.8 0.1 5.6 92 0.6 NNW 30 48 16 26 - - 0.0
23/12:33pm 6.3 -0.3 5.9 97 0.2 N 30 48 16 26 - - 0.0
23/12:30pm 6.2 -0.4 5.9 98 0.1 N 30 44 16 24 - - 0.0
23/12:02pm 6.4 -0.7 6.4 100 0.0 NNW 33 52 18 28 - - 0.0
23/12:00pm 6.5 -1.0 6.5 100 0.0 NNW 35 52 19 28 - - 0.0
23/11:33am 6.3 -1.2 6.3 100 0.0 N 35 54 19 29 - - 0.0
23/11:30am 6.4 -1.8 6.4 100 0.0 N 39 54 21 29 - - 0.0
23/11:00am 6.5 -1.3 6.5 100 0.0 NNW 37 50 20 27 - - 0.0
23/10:30am 6.5 -1.0 6.5 100 0.0 N 35 56 19 30 - - 0.0
23/10:22am 6.4 -1.1 6.4 100 0.0 N 35 56 19 30 - - 0.0
23/10:00am 6.5 -1.3 6.5 100 0.0 NNW 37 50 20 27 - - 0.0
23/09:30am 6.1 -1.1 6.0 99 0.0 NNW 33 44 18 24 - - 0.0
23/09:00am 6.3 -0.8 6.2 99 0.0 NNW 33 46 18 25 - - 2.8
23/08:57am 6.3 -0.8 6.2 99 0.0 NNW 33 52 18 28 - - 2.8
23/08:30am 6.0 -1.9 6.0 100 0.0 NNW 37 48 20 26 - - 2.8
23/08:00am 5.8 -1.8 5.8 100 0.0 NNW 35 44 19 24 - - 2.8
23/07:30am 5.7 -1.0 5.7 100 0.0 NNW 30 43 16 23 - - 2.8
23/07:00am 5.4 -1.0 5.4 100 0.0 NNW 28 39 15 21 - - 2.8
23/06:30am 5.2 -0.4 5.2 100 0.0 N 24 32 13 17 - - 2.8
23/06:00am 5.3 -0.7 5.3 100 0.0 N 26 33 14 18 - - 2.8
23/05:30am 5.2 -0.4 5.2 100 0.0 N 24 30 13 16 - - 2.8
23/05:00am 5.2 -0.1 5.2 100 0.0 N 22 30 12 16 - - 2.8
23/04:30am 5.0 -0.3 4.9 99 0.0 N 22 32 12 17 - - 2.8
23/04:00am 5.1 -0.2 5.0 99 0.0 N 22 28 12 15 - - 2.8
23/03:30am 5.3 -1.2 4.9 97 0.2 N 28 35 15 19 - - 2.8
23/03:00am 5.5 -0.5 5.1 97 0.2 N 26 35 14 19 - - 2.8
23/02:30am 5.4 -1.0 5.1 98 0.1 N 28 35 15 19 - - 2.8
23/02:00am 5.6 -1.6 5.0 96 0.3 N 32 46 17 25 - - 2.8
23/01:32am 6.1 -1.2 5.4 95 0.3 N 33 52 18 28 - - 2.8
23/01:30am 6.1 -1.2 5.4 95 0.3 N 33 44 18 24 - - 2.8
23/01:00am 6.0 -1.3 5.6 97 0.2 N 33 48 18 26 - - 2.8
23/12:30am 6.1 -1.5 5.7 97 0.2 N 35 56 19 30 - - 2.8
23/12:02am 6.0 -1.2 5.7 98 0.1 N 33 54 18 29 - - 2.8
23/12:00am 6.0 -1.2 5.7 98 0.1 N 33 46 18 25 - - 2.8
 
Date/Time
EST
Temp
°C
App
Temp
°C
Dew
Point
Rel
Hum
%
Delta-T
°C
Wind Press
QNH
hPa
Press
MSL
hPa
Rain
since 9 am
mm
Dir
 
Spd
km/h
Gust
km/h
Spd
kts
Gust
kts
22/11:40pm 6.2 -1.4 5.6 96 0.3 N 35 56 19 30 - - 2.8
22/11:30pm 6.2 -1.4 5.8 97 0.2 N 35 46 19 25 - - 2.8
22/11:00pm 6.2 0.0 6.1 99 0.0 N 28 37 15 20 - - 2.8
22/10:30pm 6.1 0.2 6.0 99 0.0 N 26 39 14 21 - - 2.8
22/10:00pm 6.1 -0.5 6.0 99 0.0 N 30 44 16 24 - - 2.8
22/09:30pm 6.1 -0.2 5.8 98 0.1 N 28 48 15 26 - - 2.8
22/09:22pm 6.3 0.1 6.0 98 0.1 NNW 28 46 15 25 - - 2.8
22/09:00pm 6.2 -0.1 5.9 98 0.1 N 28 41 15 22 - - 2.8
22/08:33pm 6.5 -0.2 5.8 95 0.3 NNW 30 48 16 26 - - 2.8
22/08:30pm 6.3 -0.8 5.7 96 0.3 NNW 32 48 17 26 - - 2.8
22/08:00pm 6.4 -0.6 5.8 96 0.3 N 32 50 17 27 - - 2.8
22/07:30pm 6.5 -1.5 5.5 93 0.5 NNW 37 50 20 27 - - 2.8
22/07:00pm 6.2 -1.4 5.6 96 0.3 N 35 46 19 25 - - 2.8
22/06:40pm 6.3 -1.7 5.6 95 0.3 NNW 37 57 20 31 - - 2.8
22/06:30pm 6.3 -2.1 5.6 95 0.3 NNW 39 54 21 29 - - 2.8
22/06:00pm 6.1 -2.3 5.4 95 0.3 NNW 39 56 21 30 - - 2.8
22/05:40pm 6.2 -2.6 5.5 95 0.3 NNW 41 59 22 32 - - 2.8
22/05:30pm 6.1 -2.3 5.4 95 0.3 NNW 39 52 21 28 - - 2.8
22/05:00pm 6.3 -1.8 5.4 94 0.4 NNW 37 52 20 28 - - 2.8
22/04:30pm 6.4 -1.7 5.4 93 0.5 NNW 37 57 20 31 - - 2.8
22/04:00pm 6.7 -0.6 5.3 91 0.7 NNW 33 57 18 31 - - 2.8
22/03:30pm 6.8 -0.9 5.4 91 0.7 NNW 35 54 19 29 - - 2.8
22/03:00pm 6.8 -0.5 5.3 90 0.7 NNW 33 54 18 29 - - 2.8
22/02:31pm 7.2 0.2 5.8 91 0.7 NNW 32 52 17 28 - - 2.8
22/02:30pm 7.0 -0.1 5.5 90 0.7 NNW 32 48 17 26 - - 2.8
22/02:00pm 6.5 -2.1 4.8 89 0.8 NNW 39 67 21 36 - - 2.8
22/01:30pm 6.4 -3.1 4.9 90 0.7 NNW 44 65 24 35 - - 2.8
22/01:00pm 5.7 -4.9 5.0 95 0.3 NNW 50 70 27 38 - - 2.4
22/12:34pm 5.9 -4.7 5.3 96 0.3 NNW 50 69 27 37 - - 2.2
22/12:30pm 5.8 -4.3 5.5 98 0.1 NNW 48 65 26 35 - - 2.2
22/12:00pm 5.4 -1.4 5.3 99 0.0 NNW 30 67 16 36 - - 1.6
22/11:54am 5.2 -1.6 5.1 99 0.0 NNW 30 50 16 27 - - 1.4
22/11:30am 4.3 -1.2 3.9 97 0.2 N 22 33 12 18 - - 0.6
22/11:00am 5.1 -1.6 3.6 90 0.7 N 28 46 15 25 - - 0.0
22/10:30am 5.9 -0.8 3.6 85 1.1 NNW 28 48 15 26 - - 0.0
22/10:00am 6.7 -0.7 3.9 82 1.3 N 32 54 17 29 - - 0.0
22/09:34am 6.4 -2.1 3.4 81 1.4 NNW 37 56 20 30 - - 0.0
22/09:30am 6.2 -2.6 3.4 82 1.3 NNW 39 52 21 28 - - 0.0
22/09:00am 5.9 -2.9 3.7 86 1.0 NNW 39 59 21 32 - - 0.0
22/08:30am 4.5 -4.4 2.8 89 0.8 NNW 39 59 21 32 - - 0.0
22/08:00am 4.8 -3.0 2.8 87 0.9 NNW 33 54 18 29 - - 0.0
22/07:30am 5.6 -4.3 2.8 82 1.3 N 44 72 24 39 - - 0.0
22/07:00am 5.4 -2.4 2.8 83 1.2 N 33 57 18 31 - - 0.0
22/06:34am 5.5 -2.1 2.7 82 1.3 N 32 52 17 28 - - 0.0
22/06:30am 5.1 -2.8 2.3 82 1.3 N 33 48 18 26 - - 0.0
22/06:00am 5.8 -2.0 2.6 80 1.5 N 33 56 18 30 - - 0.0
22/05:30am 5.9 -2.3 2.5 79 1.6 NNW 35 56 19 30 - - 0.0
22/05:02am 6.2 -1.6 3.0 80 1.5 N 33 57 18 31 - - 0.0
22/05:00am 6.2 -1.4 3.0 80 1.5 N 32 44 17 24 - - 0.0
22/04:30am 6.4 -1.8 2.9 78 1.6 NNW 35 56 19 30 - - 0.0
22/04:05am 6.5 -1.1 2.8 77 1.7 NNW 32 52 17 28 - - 0.0
22/04:00am 5.9 -0.6 2.4 78 1.6 NNW 26 44 14 24 - - 0.0
22/03:30am 6.0 -1.8 1.9 75 1.8 N 32 54 17 29 - - 0.0
22/03:27am 5.9 -1.4 2.4 78 1.6 N 30 50 16 27 - - 0.0
22/03:00am 6.2 -1.8 1.9 74 1.9 NNW 33 46 18 25 - - 0.0
22/02:30am 6.2 -1.2 2.1 75 1.9 NNW 30 46 16 25 - - 0.0
22/02:00am 6.4 -1.4 1.7 72 2.1 N 32 44 17 24 - - 0.0
22/01:30am 6.9 -0.9 2.0 71 2.2 N 32 54 17 29 - - 0.0
22/01:08am 6.7 -0.7 2.0 72 2.1 NNW 30 48 16 26 - - 0.0
22/01:00am 6.7 -0.7 1.8 71 2.2 NNW 30 43 16 23 - - 0.0
22/12:30am 6.5 -1.0 1.0 68 2.4 NNW 30 43 16 23 - - 0.0
22/12:00am 6.3 -1.0 0.2 65 2.7 N 28 43 15 23 - - 0.0
 
Date/Time
EST
Temp
°C
App
Temp
°C
Dew
Point
Rel
Hum
%
Delta-T
°C
Wind Press
QNH
hPa
Press
MSL
hPa
Rain
since 9 am
mm
Dir
 
Spd
km/h
Gust
km/h
Spd
kts
Gust
kts
21/11:30pm 6.7 -0.9 0.6 65 2.7 N 30 41 16 22 - - 0.0
21/11:00pm 7.0 -0.9 1.1 66 2.6 N 32 46 17 25 - - 0.0
21/10:30pm 6.4 -1.7 0.9 68 2.4 NNW 33 43 18 23 - - 0.0
21/10:00pm 6.4 -0.4 1.1 69 2.4 N 26 33 14 18 - - 0.0
21/09:30pm 6.7 -0.4 1.4 69 2.4 NNW 28 41 15 22 - - 0.0
21/09:00pm 6.7 0.4 1.4 69 2.4 N 24 35 13 19 - - 0.0
21/08:30pm 7.0 0.4 1.9 70 2.3 N 26 33 14 18 - - 0.0
21/08:00pm 6.4 0.2 2.1 74 2.0 N 24 33 13 18 - - 0.0
21/07:30pm 5.8 -0.1 1.9 76 1.8 N 22 33 12 18 - - 0.0
21/07:00pm 5.0 -0.4 1.1 76 1.7 N 19 22 10 12 - - 0.0
21/06:30pm 4.5 -1.2 0.3 74 1.8 NNW 20 22 11 12 - - 0.0
21/06:00pm 4.4 -1.3 0.7 77 1.6 NNW 20 24 11 13 - - 0.0
21/05:30pm 4.7 -0.8 2.1 83 1.2 NNW 20 28 11 15 - - 0.0
21/05:00pm 5.3 -0.6 1.6 77 1.6 NNW 22 28 12 15 - - 0.0
21/04:30pm 5.9 0.2 3.1 82 1.3 NNW 22 26 12 14 - - 0.0
21/04:00pm 7.6 1.3 1.7 66 2.7 NNW 24 30 13 16 - - 0.0

Other Formats:

Comma delimited format used in spreadsheet applications
http://www.bom.gov.au/fwo/IDV60801/IDV60801.94894.axf

JavaScript Object Notation format (JSON) in row-major order
http://www.bom.gov.au/fwo/IDV60801/IDV60801.94894.json